Main page
METAR-TAF:

METAR-TAF

Airports :

Memmingen, Germany

latitude: 47-59-33N, longitude: 10-14-37E, elevation: 633 m

Current weather observation

The report was made 39 minutes ago, at 08:20 UTC
Wind 4 kt from the West
Temperature 5°C
Humidity 60%
Pressure 1015 hPa
Visibility 10 km or more
no clouds below 1500 m and no cumulonimbus

METAR: EDJA 030820Z 28004KT CAVOK 05/M02 Q1015

Time: 10:59 (08:59 UTC)

Forecast

The report was made 59 minutes ago, at 08:00 UTC
Forecast valid from 03 at 09 UTC to 03 at 18 UTC
Wind 8 kt from the West
Visibility 10 km or more
no clouds below 1500 m and no cumulonimbus
Becoming
from 03 at 13 UTC to 03 at 15 UTC
Wind 7 kt from the North/Northwest
Becoming
from 03 at 16 UTC to 03 at 18 UTC
Wind 3 kt from variable directions

TAF: EDJA 030800Z 0309/0318 26008KT CAVOK BECMG 0313/0315 33007KT BECMG 0316/0318 VRB03KT

Weather observations and forecasts of more than 4000 airports (METAR and TAF reports).

The available stations are represented by yellow and red dots on the map.

Hover mouse over dot to see the name of the station.

Then click to see weather observations and forecasts.

To change the map : click on the green buttons with a black cross to zoom in, on the green button with a dash to zoom out, or on the green arrows for adjacent maps.


METAR-TAF: